Time;durP1;ratioP1;P1;durP2;ratioP2;P2;SDS_P1;SDS_P2;PMS_P1;PMS_P2;Temp;Humidity;BMP_temperature;BMP_pressure;BME280_temperature;BME280_humidity;BME280_pressure;Samples;Min_cycle;Max_cycle;Signal;HPM_P1;HPM_P2
2021/04/28 00:01:28;;;;;;;10.70;7.53;;;;;;;4.54;67.31;97016.28;5057442;28;20602;-70
2021/04/28 00:03:55;;;;;;;7.70;6.73;;;;;;;4.48;67.29;97021.16;5059989;28;20226;-70
2021/04/28 00:06:22;;;;;;;7.60;6.80;;;;;;;4.52;67.06;97018.22;5061652;28;20210;-70
2021/04/28 00:08:49;;;;;;;8.57;7.10;;;;;;;4.35;67.56;97020.72;5058959;28;20205;-70
2021/04/28 00:11:16;;;;;;;8.37;7.57;;;;;;;4.43;67.79;97019.97;5064983;28;20500;-70
2021/04/28 00:13:44;;;;;;;7.67;7.00;;;;;;;4.14;69.03;97010.50;5060988;28;20622;-68
2021/04/28 00:16:11;;;;;;;7.40;6.73;;;;;;;4.23;68.66;97008.78;5060782;28;20697;-70
2021/04/28 00:18:38;;;;;;;7.20;6.60;;;;;;;4.22;68.67;97012.38;5059860;28;20231;-70
2021/04/28 00:21:05;;;;;;;8.73;6.73;;;;;;;4.15;68.91;97012.13;5062752;28;20206;-70
2021/04/28 00:23:32;;;;;;;7.87;6.80;;;;;;;4.02;69.06;97013.31;5061858;28;20591;-70
2021/04/28 00:25:59;;;;;;;7.17;6.57;;;;;;;3.82;70.01;97009.16;5060836;28;20750;-70
2021/04/28 00:28:26;;;;;;;6.97;6.37;;;;;;;3.79;70.53;97005.03;5056441;28;20203;-71
2021/04/28 00:30:54;;;;;;;7.93;7.23;;;;;;;3.79;70.78;96998.94;5058212;28;20246;-71
2021/04/28 00:33:21;;;;;;;10.03;6.77;;;;;;;3.97;70.48;97002.44;5058419;28;20235;-71
2021/04/28 00:35:48;;;;;;;7.67;6.97;;;;;;;4.16;69.08;97001.50;5061910;28;20214;-70
2021/04/28 00:38:20;;;;;;;7.80;7.13;;;;;;;4.04;69.63;96992.19;5059496;28;20215;-70
2021/04/28 00:40:48;;;;;;;7.37;6.77;;;;;;;3.76;71.25;96998.28;5061267;28;20203;-71
2021/04/28 00:43:17;;;;;;;8.53;7.00;;;;;;;3.87;71.57;96989.41;5061093;28;20317;-71
2021/04/28 00:45:45;;;;;;;7.90;6.47;;;;;;;3.92;71.11;96996.81;5059335;28;20567;-70
2021/04/28 00:48:13;;;;;;;7.97;7.23;;;;;;;3.91;70.21;96992.53;5059865;28;20258;-70
2021/04/28 00:50:42;;;;;;;7.80;7.10;;;;;;;3.74;71.41;97002.84;5062077;28;20211;-71
2021/04/28 00:53:11;;;;;;;8.30;7.60;;;;;;;3.44;73.29;97002.13;5061422;28;20715;-71
2021/04/28 00:55:39;;;;;;;9.23;7.70;;;;;;;3.63;72.52;97000.41;5063279;28;20199;-72
2021/04/28 00:58:06;;;;;;;7.53;6.83;;;;;;;3.62;72.54;97004.00;5061751;28;20226;-71
2021/04/28 01:00:35;;;;;;;7.87;7.17;;;;;;;3.52;72.68;96997.97;5058813;28;20623;-71
2021/04/28 01:03:02;;;;;;;8.73;7.00;;;;;;;3.50;72.81;96990.25;5058220;28;20646;-70
2021/04/28 01:05:31;;;;;;;8.80;7.93;;;;;;;3.45;73.07;96989.88;5061487;28;20667;-71
2021/04/28 01:07:58;;;;;;;7.50;6.63;;;;;;;3.43;73.32;96990.00;5062226;28;20241;-71
2021/04/28 01:10:26;;;;;;;8.03;7.30;;;;;;;3.64;71.91;96986.34;5060692;28;20690;-70
2021/04/28 01:12:54;;;;;;;7.27;6.60;;;;;;;3.55;73.03;96992.44;5063768;28;20545;-70
2021/04/28 01:15:25;;;;;;;6.93;6.23;;;;;;;3.28;74.63;96988.81;5061138;28;20211;-69
2021/04/28 01:17:52;;;;;;;7.60;7.00;;;;;;;3.22;74.17;96995.44;5059669;28;20803;-71
2021/04/28 01:20:21;;;;;;;8.00;7.30;;;;;;;3.26;75.11;96986.34;5062234;28;20199;-70
2021/04/28 01:22:49;;;;;;;7.70;7.07;;;;;;;3.24;74.51;96995.31;5058466;28;20728;-71
2021/04/28 01:25:18;;;;;;;7.63;6.50;;;;;;;3.18;74.73;96983.59;5062324;28;20213;-71
2021/04/28 01:27:49;;;;;;;8.27;7.30;;;;;;;3.01;74.86;96982.53;5059609;28;20804;-70
2021/04/28 01:30:17;;;;;;;7.67;6.97;;;;;;;3.00;75.41;96986.94;5060921;28;20214;-71
2021/04/28 01:32:47;;;;;;;7.47;6.77;;;;;;;2.79;76.11;96992.34;5058150;28;21107;-70
2021/04/28 01:35:15;;;;;;;8.00;7.20;;;;;;;2.87;75.65;96979.41;5056067;28;20700;-71
2021/04/28 01:37:43;;;;;;;7.50;6.80;;;;;;;2.87;75.12;96989.03;5054168;28;20598;-71
2021/04/28 01:40:12;;;;;;;8.03;6.40;;;;;;;2.82;75.41;96986.84;5061840;28;20222;-71
2021/04/28 01:42:39;;;;;;;8.00;7.23;;;;;;;2.82;74.95;96978.16;5060984;28;20227;-71
2021/04/28 01:45:07;;;;;;;8.13;7.50;;;;;;;2.86;75.00;96977.75;5060922;28;20223;-70
2021/04/28 01:47:34;;;;;;;8.30;7.57;;;;;;;2.85;75.46;96975.28;5061067;28;20671;-71
2021/04/28 01:50:03;;;;;;;7.87;7.17;;;;;;;2.70;75.49;96973.09;5059745;28;20288;-71
2021/04/28 01:52:30;;;;;;;8.10;7.40;;;;;;;2.74;76.44;96976.25;5061306;28;20234;-71
2021/04/28 01:54:57;;;;;;;8.87;7.53;;;;;;;2.57;77.26;96983.84;5061387;28;20203;-69
2021/04/28 01:57:26;;;;;;;7.73;7.00;;;;;;;2.72;76.93;96980.78;5059737;28;20675;-71
2021/04/28 01:59:53;;;;;;;8.10;7.50;;;;;;;2.48;78.17;96987.28;5059239;28;20207;-71
2021/04/28 02:02:20;;;;;;;8.43;6.83;;;;;;;2.29;79.62;96986.31;5061631;28;20231;-70
2021/04/28 02:04:48;;;;;;;7.67;6.87;;;;;;;2.51;78.90;96987.00;5059485;28;20707;-70
2021/04/28 02:07:15;;;;;;;7.60;6.90;;;;;;;2.64;77.35;96988.50;5060884;28;20567;-70
2021/04/28 02:09:42;;;;;;;7.77;6.97;;;;;;;2.59;77.55;96995.00;5059423;28;20199;-71
2021/04/28 02:12:11;;;;;;;7.87;6.80;;;;;;;2.54;77.85;96994.59;5061303;28;20231;-71
2021/04/28 02:14:40;;;;;;;8.27;6.57;;;;;;;2.55;77.39;96990.16;5059441;28;20199;-71
2021/04/28 02:17:08;;;;;;;7.50;6.70;;;;;;;2.57;77.93;96983.84;5058444;28;20272;-70
2021/04/28 02:19:38;;;;;;;9.07;8.10;;;;;;;2.50;77.58;96987.97;5060543;28;20345;-70
2021/04/28 02:22:05;;;;;;;8.90;7.87;;;;;;;2.43;78.50;96984.25;5056911;28;20250;-71
2021/04/28 02:24:32;;;;;;;8.07;7.27;;;;;;;2.44;77.47;96983.28;5058458;28;20675;-70
2021/04/28 02:26:59;;;;;;;9.07;8.17;;;;;;;2.15;79.97;96968.41;5060078;28;20599;-70
2021/04/28 02:29:27;;;;;;;8.20;7.40;;;;;;;2.07;80.34;96978.72;5058448;28;20207;-71
2021/04/28 02:31:55;;;;;;;7.43;6.73;;;;;;;2.05;80.18;96970.19;5058636;28;20602;-71
2021/04/28 02:34:22;;;;;;;8.23;7.43;;;;;;;2.28;78.29;96968.97;5059061;28;20695;-70
2021/04/28 02:36:52;;;;;;;7.87;7.17;;;;;;;2.32;77.99;96969.53;5059534;28;20494;-70
2021/04/28 02:39:24;;;;;;;8.80;7.90;;;;;;;2.10;78.22;96966.19;5052398;28;20224;-70
2021/04/28 02:41:51;;;;;;;8.17;7.47;;;;;;;2.21;77.28;96967.88;5058902;28;20610;-70
2021/04/28 02:44:19;;;;;;;7.60;7.00;;;;;;;2.21;76.75;96957.41;5058587;28;20211;-69
2021/04/28 02:46:47;;;;;;;7.27;6.67;;;;;;;2.11;77.02;96962.63;5062522;28;20226;-70
2021/04/28 02:49:17;;;;;;;6.97;6.37;;;;;;;1.94;77.86;96964.13;5057167;28;20199;-70
2021/04/28 02:51:46;;;;;;;7.90;7.07;;;;;;;1.75;78.91;96957.06;5058889;28;20350;-70
2021/04/28 02:54:13;;;;;;;7.87;7.17;;;;;;;1.85;78.35;96960.50;5060047;28;20221;-71
2021/04/28 02:56:41;;;;;;;7.57;6.80;;;;;;;1.78;79.29;96962.03;5055880;28;20207;-70
2021/04/28 02:59:08;;;;;;;8.07;7.33;;;;;;;1.82;79.80;96954.75;5061074;28;20230;-71
2021/04/28 03:01:35;;;;;;;8.43;7.63;;;;;;;1.85;79.52;96954.47;5058693;28;20231;-70
2021/04/28 03:04:05;;;;;;;7.67;7.00;;;;;;;1.79;80.29;96957.63;5057712;28;20232;-70
2021/04/28 03:06:33;;;;;;;8.70;7.90;;;;;;;1.78;80.90;96964.63;5059373;28;20207;-70
2021/04/28 03:09:00;;;;;;;7.93;7.33;;;;;;;1.70;81.19;96956.63;5062795;28;20221;-71
2021/04/28 03:11:27;;;;;;;8.37;7.67;;;;;;;1.70;80.79;96960.06;5067024;28;20232;-70
2021/04/28 03:13:54;;;;;;;8.63;7.93;;;;;;;1.62;81.34;96959.91;5065154;28;20213;-70
2021/04/28 03:16:21;;;;;;;8.43;7.63;;;;;;;1.55;82.88;96966.63;5063676;28;20210;-70
2021/04/28 03:18:48;;;;;;;7.40;6.83;;;;;;;1.42;83.35;96962.47;5061732;28;20765;-71
2021/04/28 03:21:16;;;;;;;8.27;7.53;;;;;;;1.31;84.67;96965.16;5067742;28;20207;-70
2021/04/28 03:23:44;;;;;;;8.70;7.67;;;;;;;1.22;85.69;96955.50;5066025;28;20427;-71
2021/04/28 03:26:11;;;;;;;8.40;7.53;;;;;;;1.42;84.03;96957.25;5064782;28;20228;-71
2021/04/28 03:28:38;;;;;;;8.03;7.37;;;;;;;1.39;83.30;96960.13;5067199;28;20467;-70
2021/04/28 03:31:06;;;;;;;8.37;7.53;;;;;;;1.39;82.90;96959.28;5065225;28;20214;-70
2021/04/28 03:33:32;;;;;;;11.27;7.80;;;;;;;1.38;82.23;96961.09;5066536;28;20209;-71
2021/04/28 03:36:00;;;;;;;8.40;7.57;;;;;;;1.13;83.22;96955.34;5065029;28;20667;-70
2021/04/28 03:38:27;;;;;;;10.23;7.50;;;;;;;1.21;83.27;96964.28;5062945;28;20254;-70
2021/04/28 03:40:55;;;;;;;9.10;7.93;;;;;;;1.22;82.79;96969.41;5066602;28;20282;-70
2021/04/28 03:43:22;;;;;;;7.80;7.00;;;;;;;1.08;83.35;96967.09;5064186;28;20230;-70
2021/04/28 03:45:49;;;;;;;8.53;7.77;;;;;;;1.14;83.67;96969.22;5066291;28;20659;-70
2021/04/28 03:48:16;;;;;;;11.13;7.97;;;;;;;1.07;84.81;96974.13;5066323;28;20207;-70
2021/04/28 03:50:43;;;;;;;7.83;7.23;;;;;;;0.92;84.68;96976.25;5062047;28;20207;-71
2021/04/28 03:53:10;;;;;;;8.83;7.93;;;;;;;0.91;85.38;96971.13;5064565;28;20333;-70
2021/04/28 03:55:38;;;;;;;8.83;8.00;;;;;;;0.92;86.52;96975.41;5064167;28;20204;-71
2021/04/28 03:58:06;;;;;;;9.07;7.90;;;;;;;0.92;86.72;96965.81;5064807;28;20222;-70
2021/04/28 04:00:33;;;;;;;9.17;8.27;;;;;;;0.90;85.80;96972.09;5062667;28;20214;-70
2021/04/28 04:03:00;;;;;;;9.03;8.13;;;;;;;0.88;86.25;96972.22;5066111;28;20227;-71
2021/04/28 04:05:27;;;;;;;8.87;8.13;;;;;;;0.84;86.10;96968.22;5065608;28;20260;-70
2021/04/28 04:07:54;;;;;;;8.17;7.37;;;;;;;0.90;85.55;96972.09;5066249;28;20209;-70
2021/04/28 04:10:21;;;;;;;9.03;8.07;;;;;;;1.14;84.46;96969.22;5066750;28;20230;-70
2021/04/28 04:12:48;;;;;;;8.17;7.43;;;;;;;1.06;85.03;96964.66;5065728;28;20233;-70
2021/04/28 04:15:16;;;;;;;8.40;7.60;;;;;;;1.10;85.91;96970.41;5065446;28;20207;-71
2021/04/28 04:17:43;;;;;;;9.10;8.30;;;;;;;1.18;85.66;96970.63;5063045;28;20199;-71
2021/04/28 04:20:11;;;;;;;8.47;7.77;;;;;;;0.97;85.92;96978.47;5065007;28;20214;-71
2021/04/28 04:22:38;;;;;;;8.87;8.07;;;;;;;1.14;85.73;96980.47;5065856;28;20808;-70
2021/04/28 04:25:07;;;;;;;9.43;7.73;;;;;;;1.18;85.56;96978.44;5060349;28;20202;-71
2021/04/28 04:27:34;;;;;;;8.93;8.23;;;;;;;1.12;85.74;96976.34;5062525;28;20211;-67
2021/04/28 04:30:01;;;;;;;8.27;7.60;;;;;;;1.10;86.87;96989.53;5061175;28;20242;-67
2021/04/28 04:32:29;;;;;;;8.43;7.63;;;;;;;1.17;86.26;96983.78;5063509;28;20226;-65
2021/04/28 04:34:56;;;;;;;8.43;7.67;;;;;;;1.13;85.97;96977.97;5060725;28;20199;-66
2021/04/28 04:37:23;;;;;;;9.03;8.13;;;;;;;1.32;84.91;96985.06;5062318;28;20439;-67
2021/04/28 04:39:50;;;;;;;9.63;7.77;;;;;;;1.36;84.94;96983.88;5062105;28;20227;-67
2021/04/28 04:42:17;;;;;;;9.47;8.57;;;;;;;1.38;84.33;96986.34;5059456;28;20956;-70
2021/04/28 04:44:44;;;;;;;9.33;8.57;;;;;;;1.29;85.37;96987.94;5057367;28;20206;-71
2021/04/28 04:47:11;;;;;;;9.47;8.57;;;;;;;1.37;88.17;96987.31;5059878;28;20214;-71
2021/04/28 04:49:39;;;;;;;9.27;8.30;;;;;;;1.37;88.43;96990.75;5061794;28;20676;-70
2021/04/28 04:52:06;;;;;;;8.90;8.00;;;;;;;1.49;87.99;96988.06;5057111;28;20732;-70
2021/04/28 04:54:33;;;;;;;13.97;9.23;;;;;;;1.94;85.89;96992.84;5063130;28;20204;-68
2021/04/28 04:57:00;;;;;;;9.03;8.33;;;;;;;2.11;84.82;96988.75;5056386;28;20202;-72
2021/04/28 04:59:27;;;;;;;13.03;9.13;;;;;;;2.22;83.65;96987.81;5058562;28;20730;-69
2021/04/28 05:01:54;;;;;;;15.23;8.93;;;;;;;2.35;84.33;96998.03;5062688;28;20250;-70
2021/04/28 05:04:22;;;;;;;9.07;8.13;;;;;;;2.31;83.58;96991.41;5058831;28;20257;-69
2021/04/28 05:06:52;;;;;;;9.97;8.50;;;;;;;2.50;81.77;96994.97;5055437;28;20198;-70
2021/04/28 05:09:20;;;;;;;8.93;8.03;;;;;;;2.55;82.35;96995.41;5058016;28;20455;-70
2021/04/28 05:11:47;;;;;;;10.70;8.37;;;;;;;2.64;82.18;96989.31;5057728;28;20226;-69
2021/04/28 05:14:14;;;;;;;9.40;8.43;;;;;;;2.64;82.09;96993.75;5054581;28;20222;-69
2021/04/28 05:16:44;;;;;;;10.33;9.33;;;;;;;2.60;82.42;96998.41;5059813;28;20566;-69
2021/04/28 05:19:11;;;;;;;9.73;8.30;;;;;;;2.79;79.73;96996.78;5059569;28;20227;-69
2021/04/28 05:21:38;;;;;;;9.70;8.80;;;;;;;2.99;78.38;96989.72;5055357;28;20233;-70
2021/04/28 05:24:07;;;;;;;10.97;9.73;;;;;;;2.92;76.61;96992.06;5054637;28;20203;-70
2021/04/28 05:26:34;;;;;;;12.40;9.37;;;;;;;2.97;77.33;96995.06;5060407;28;20668;-69
2021/04/28 05:29:01;;;;;;;15.20;9.20;;;;;;;3.06;76.41;96993.41;5058828;28;20260;-70
2021/04/28 05:31:28;;;;;;;11.67;9.17;;;;;;;3.03;77.24;96996.31;5062639;28;20239;-70
2021/04/28 05:33:55;;;;;;;10.33;9.30;;;;;;;3.11;77.89;96991.19;5061015;28;20322;-70
2021/04/28 05:36:22;;;;;;;9.87;8.90;;;;;;;3.37;75.25;96992.34;5056407;28;20207;-70
2021/04/28 05:38:53;;;;;;;9.17;8.33;;;;;;;3.34;76.33;96988.25;5051782;28;20321;-70
2021/04/28 05:41:21;;;;;;;10.20;9.20;;;;;;;3.44;76.86;96996.06;5057761;28;20218;-70
2021/04/28 05:43:48;;;;;;;10.27;9.27;;;;;;;3.60;76.58;96998.09;5057935;28;20617;-70
2021/04/28 05:46:15;;;;;;;12.13;10.23;;;;;;;3.72;74.88;96999.53;5057299;28;20245;-70
2021/04/28 05:48:42;;;;;;;12.53;9.87;;;;;;;3.99;75.92;96990.03;5061644;28;20206;-70
2021/04/28 05:51:09;;;;;;;11.20;10.10;;;;;;;4.12;72.80;96996.72;5062033;28;20260;-70
2021/04/28 05:53:36;;;;;;;15.50;9.50;;;;;;;4.24;71.61;97000.75;5058277;28;20686;-70
2021/04/28 05:56:04;;;;;;;16.17;10.27;;;;;;;4.33;71.79;96997.22;5058700;28;20199;-70
2021/04/28 05:58:32;;;;;;;14.40;11.27;;;;;;;4.52;71.00;96994.63;5055048;28;20231;-71
2021/04/28 06:00:59;;;;;;;17.47;10.73;;;;;;;4.60;71.42;96994.72;5060281;28;20698;-70
2021/04/28 06:03:26;;;;;;;20.70;11.73;;;;;;;4.84;70.05;96988.00;5056438;28;20250;-70
2021/04/28 06:05:53;;;;;;;24.90;12.80;;;;;;;5.02;69.28;96985.34;5060290;28;20203;-70
2021/04/28 06:08:20;;;;;;;18.63;11.57;;;;;;;5.18;68.00;96987.25;5058404;28;20757;-70
2021/04/28 06:10:47;;;;;;;28.47;12.37;;;;;;;5.29;67.60;96983.53;5052338;28;20794;-69
2021/04/28 06:13:14;;;;;;;26.73;13.40;;;;;;;5.50;66.75;96983.16;5058729;28;20258;-70
2021/04/28 06:15:42;;;;;;;27.30;12.47;;;;;;;5.67;67.98;96986.69;5060071;28;20690;-71
2021/04/28 06:18:09;;;;;;;15.63;11.37;;;;;;;5.75;66.86;96984.09;5054245;28;20211;-70
2021/04/28 06:20:36;;;;;;;18.93;11.00;;;;;;;6.10;64.82;96978.84;5058163;28;20207;-71
2021/04/28 06:23:04;;;;;;;19.23;13.33;;;;;;;6.33;65.75;96975.56;5058479;28;20350;-70
2021/04/28 06:25:31;;;;;;;20.00;12.43;;;;;;;6.39;64.46;96984.63;5058353;28;20553;-70
2021/04/28 06:27:58;;;;;;;15.50;10.87;;;;;;;6.51;63.63;96988.59;5055531;28;20218;-71
2021/04/28 06:30:25;;;;;;;20.07;11.83;;;;;;;6.75;63.46;96982.50;5055472;28;20211;-71
2021/04/28 06:32:53;;;;;;;22.80;12.13;;;;;;;6.77;62.81;96980.53;5062344;28;20227;-69
2021/04/28 06:35:20;;;;;;;15.10;10.47;;;;;;;7.14;61.41;96977.53;5053544;28;20239;-71
2021/04/28 06:37:47;;;;;;;16.13;10.57;;;;;;;7.38;60.56;96976.66;5052646;28;20406;-71
2021/04/28 06:40:14;;;;;;;17.37;10.93;;;;;;;7.44;59.17;96969.91;5056520;28;20226;-69
2021/04/28 06:42:41;;;;;;;17.77;10.23;;;;;;;7.48;59.46;96966.78;5057313;28;20223;-70
2021/04/28 06:45:09;;;;;;;15.83;9.43;;;;;;;7.72;59.47;96975.56;5057791;28;20269;-69
2021/04/28 06:47:37;;;;;;;14.53;9.87;;;;;;;7.88;58.15;96973.88;5058746;28;20209;-71
2021/04/28 06:50:07;;;;;;;32.77;10.60;;;;;;;7.91;56.72;96966.44;5056755;28;20206;-71
2021/04/28 06:52:34;;;;;;;15.83;10.40;;;;;;;8.02;57.99;96973.13;5053300;28;20233;-69
2021/04/28 06:55:01;;;;;;;14.97;9.87;;;;;;;8.17;56.68;96973.22;5059761;28;20272;-70
2021/04/28 06:57:53;;;;;;;14.83;9.37;;;;;;;8.46;56.13;96970.91;5054909;28;20925;-68
2021/04/28 07:00:21;;;;;;;14.67;10.53;;;;;;;8.59;56.01;96963.25;5057281;28;20229;-69
2021/04/28 07:02:48;;;;;;;15.53;10.10;;;;;;;8.86;55.74;96962.88;5053553;28;20223;-71
2021/04/28 07:05:16;;;;;;;12.07;9.40;;;;;;;9.12;54.73;96958.03;5056873;28;20354;-70
2021/04/28 07:07:43;;;;;;;8.93;7.97;;;;;;;9.32;53.65;96964.59;5061054;28;20210;-69
2021/04/28 07:10:11;;;;;;;11.80;9.87;;;;;;;9.55;53.06;96956.59;5059983;28;20203;-70
2021/04/28 07:12:38;;;;;;;11.67;8.97;;;;;;;9.77;53.48;96973.34;5057595;28;20408;-69
2021/04/28 07:15:07;;;;;;;11.40;7.90;;;;;;;10.06;51.87;96965.53;5056879;28;20512;-69
2021/04/28 07:17:35;;;;;;;10.13;9.20;;;;;;;10.18;50.36;96966.69;5055194;28;20705;-70
2021/04/28 07:20:02;;;;;;;10.73;8.80;;;;;;;10.38;49.80;96968.75;5056670;28;20253;-69
2021/04/28 07:22:30;;;;;;;8.80;7.90;;;;;;;10.27;49.85;96965.59;5058111;28;20306;-70
2021/04/28 07:24:56;;;;;;;9.20;8.20;;;;;;;10.39;49.86;96957.94;5055455;28;20213;-70
2021/04/28 07:27:23;;;;;;;9.63;8.33;;;;;;;10.42;51.57;96964.75;5058300;28;20202;-69
2021/04/28 07:29:50;;;;;;;8.87;7.97;;;;;;;10.76;48.71;96965.03;5053639;28;20433;-70
2021/04/28 07:32:18;;;;;;;9.37;8.33;;;;;;;10.54;49.67;96970.38;5060760;28;20229;-70
2021/04/28 07:34:45;;;;;;;8.90;8.10;;;;;;;10.65;49.79;96961.09;5061866;28;20221;-68
2021/04/28 07:37:12;;;;;;;8.97;8.17;;;;;;;10.86;50.37;96968.22;5053245;28;20237;-70
2021/04/28 07:39:40;;;;;;;7.97;7.27;;;;;;;11.08;49.09;96960.22;5058498;28;20298;-70
2021/04/28 07:42:07;;;;;;;10.90;7.23;;;;;;;11.16;49.10;96957.41;5058029;28;20223;-70
2021/04/28 07:44:34;;;;;;;9.17;8.10;;;;;;;11.33;49.11;96954.47;5050448;28;20569;-70
2021/04/28 07:47:02;;;;;;;8.23;7.43;;;;;;;11.43;49.15;96947.81;5060584;28;20218;-70
2021/04/28 07:49:29;;;;;;;8.27;7.57;;;;;;;11.45;49.04;96952.91;5057381;28;20671;-70
2021/04/28 07:51:56;;;;;;;7.93;7.27;;;;;;;11.88;47.05;96952.72;5058271;28;20226;-69
2021/04/28 07:54:25;;;;;;;9.70;7.63;;;;;;;11.94;47.86;96951.13;5059567;28;20638;-70
2021/04/28 07:56:52;;;;;;;7.73;7.13;;;;;;;12.26;45.82;96945.31;5064443;28;20210;-68
2021/04/28 07:59:19;;;;;;;7.10;6.43;;;;;;;12.44;46.32;96944.75;5064607;28;20234;-70
2021/04/28 08:01:47;;;;;;;7.13;6.53;;;;;;;12.36;46.68;96942.28;5061733;28;20691;-69
2021/04/28 08:04:15;;;;;;;9.47;6.60;;;;;;;12.51;46.23;96942.94;5063448;28;20214;-69
2021/04/28 08:06:42;;;;;;;7.30;6.70;;;;;;;12.77;45.25;96951.13;5053920;28;20238;-70
2021/04/28 08:09:09;;;;;;;6.77;6.17;;;;;;;12.96;45.12;96944.97;5062856;28;20229;-69
2021/04/28 08:11:36;;;;;;;6.23;5.63;;;;;;;12.97;45.97;96943.97;5064430;28;20227;-70
2021/04/28 08:14:04;;;;;;;6.67;6.07;;;;;;;13.16;45.98;96941.50;5057756;28;20234;-70
2021/04/28 08:16:34;;;;;;;6.80;5.90;;;;;;;13.17;44.72;96938.63;5063916;28;20221;-70
2021/04/28 08:19:02;;;;;;;6.37;5.87;;;;;;;13.56;43.53;96932.66;5063537;28;20260;-69
2021/04/28 08:21:29;;;;;;;5.67;5.27;;;;;;;13.52;45.02;96934.94;5063334;28;20237;-69
2021/04/28 08:23:57;;;;;;;6.27;5.70;;;;;;;13.62;43.59;96939.00;5057099;28;20219;-69
2021/04/28 08:26:24;;;;;;;7.13;5.90;;;;;;;13.55;44.45;96936.34;5059743;28;20199;-70
2021/04/28 08:28:51;;;;;;;5.80;5.23;;;;;;;13.57;43.71;96931.63;5063685;28;20209;-69
2021/04/28 08:31:21;;;;;;;6.80;6.13;;;;;;;13.81;43.02;96940.75;5063590;28;20222;-69
2021/04/28 08:33:49;;;;;;;5.73;5.17;;;;;;;14.11;42.19;96939.41;5063230;28;20210;-70
2021/04/28 08:36:16;;;;;;;6.07;5.03;;;;;;;14.09;41.38;96936.94;5062549;28;20622;-70
2021/04/28 08:38:43;;;;;;;5.77;5.30;;;;;;;14.08;42.27;96934.53;5063335;28;20207;-70
2021/04/28 08:41:12;;;;;;;5.30;4.80;;;;;;;14.35;41.80;96937.84;5059728;28;20714;-70
2021/04/28 08:43:39;;;;;;;6.93;5.93;;;;;;;14.41;41.34;96933.53;5063275;28;20207;-70
2021/04/28 08:46:08;;;;;;;6.13;5.50;;;;;;;14.53;40.43;96930.97;5063273;28;20203;-70
2021/04/28 08:48:36;;;;;;;7.77;5.37;;;;;;;14.62;41.38;96930.50;5062714;28;20211;-70
2021/04/28 08:51:04;;;;;;;5.73;5.33;;;;;;;14.66;40.44;96925.56;5063857;28;20237;-69
2021/04/28 08:53:32;;;;;;;6.00;5.40;;;;;;;14.70;40.41;96926.78;5062710;28;20206;-70
2021/04/28 08:56:05;;;;;;;5.90;5.17;;;;;;;14.67;39.63;96924.53;5062621;28;20201;-70
2021/04/28 08:58:32;;;;;;;6.30;5.37;;;;;;;14.83;41.16;96923.19;5060262;28;20209;-71
2021/04/28 09:01:00;;;;;;;5.30;4.90;;;;;;;15.01;39.89;96917.09;5062789;28;20199;-70
2021/04/28 09:03:41;;;;;;;5.10;4.80;;;;;;;15.26;39.86;96921.56;5060751;28;20599;-71
2021/04/28 09:06:30;;;;;;;5.83;5.33;;;;;;;15.37;37.76;96914.69;5061781;28;20286;-70
2021/04/28 09:08:57;;;;;;;6.07;5.47;;;;;;;15.52;37.99;96927.69;5062278;28;20218;-70
2021/04/28 09:11:41;;;;;;;5.50;5.10;;;;;;;15.55;38.33;96913.09;5062565;28;20230;-70
2021/04/28 09:14:11;;;;;;;6.23;5.63;;;;;;;15.55;38.07;96913.09;5062509;28;20743;-69
2021/04/28 09:16:40;;;;;;;5.70;5.30;;;;;;;15.66;38.08;96904.31;5061707;28;20686;-70
2021/04/28 09:19:19;;;;;;;5.63;5.07;;;;;;;15.72;37.66;96907.94;5061471;28;20734;-71
2021/04/28 09:21:47;;;;;;;5.37;4.97;;;;;;;15.83;37.83;96909.88;5062944;28;20289;-70
2021/04/28 09:24:17;;;;;;;6.67;5.63;;;;;;;16.06;35.06;96909.19;5060978;28;20214;-70
2021/04/28 09:26:49;;;;;;;6.50;6.00;;;;;;;16.12;34.11;96904.81;5059815;28;20209;-70
2021/04/28 09:29:17;;;;;;;5.13;4.73;;;;;;;16.22;34.60;96909.59;5058247;28;20204;-70
2021/04/28 09:31:58;;;;;;;5.80;5.40;;;;;;;16.23;34.44;96900.53;5061484;28;20427;-70
2021/04/28 09:34:28;;;;;;;5.77;5.37;;;;;;;16.25;35.27;96894.97;5062106;28;20199;-70
2021/04/28 09:37:12;;;;;;;5.87;5.30;;;;;;;16.32;35.43;96893.00;5061654;28;20587;-70
2021/04/28 09:39:43;;;;;;;5.67;5.17;;;;;;;16.44;34.17;96887.69;5056694;28;20230;-70
2021/04/28 09:42:11;;;;;;;5.53;5.13;;;;;;;16.70;33.22;96893.69;5062784;28;20233;-71
2021/04/28 09:44:44;;;;;;;6.80;5.47;;;;;;;16.47;33.22;96881.91;5059386;28;20211;-70
2021/04/28 09:47:14;;;;;;;5.87;5.27;;;;;;;16.56;31.90;96880.50;5059026;28;20287;-69
2021/04/28 09:49:45;;;;;;;5.77;5.30;;;;;;;16.47;32.88;96880.03;5057126;28;20289;-70
2021/04/28 09:52:13;;;;;;;5.73;5.23;;;;;;;16.76;32.46;96877.50;5059642;28;20223;-71
2021/04/28 09:54:42;;;;;;;5.70;5.30;;;;;;;16.94;30.99;96875.78;5058175;28;20214;-70
2021/04/28 09:57:10;;;;;;;6.40;5.70;;;;;;;17.02;30.84;96870.13;5062411;28;20590;-70
2021/04/28 09:59:45;;;;;;;5.90;5.37;;;;;;;16.91;31.21;96866.34;5062372;28;20258;-69
2021/04/28 10:02:13;;;;;;;6.87;6.23;;;;;;;16.93;30.81;96866.13;5059720;28;20729;-71
2021/04/28 10:04:40;;;;;;;5.90;5.40;;;;;;;16.97;30.91;96869.16;5060872;28;20233;-71
2021/04/28 10:07:08;;;;;;;5.83;5.20;;;;;;;17.12;30.69;96869.53;5055475;28;20199;-70
2021/04/28 10:09:36;;;;;;;6.13;5.53;;;;;;;17.17;30.52;96868.81;5061891;28;20705;-70
2021/04/28 10:12:05;;;;;;;5.37;4.77;;;;;;;17.10;30.75;96870.81;5058649;28;20691;-69
2021/04/28 10:14:33;;;;;;;6.13;5.63;;;;;;;17.09;30.60;96866.50;5061875;28;20214;-70
2021/04/28 10:17:03;;;;;;;5.73;5.23;;;;;;;17.38;28.43;96869.28;5061815;28;20209;-71
2021/04/28 10:19:33;;;;;;;5.70;5.20;;;;;;;17.26;29.85;96869.28;5062328;28;20227;-70
2021/04/28 10:22:02;;;;;;;5.70;5.20;;;;;;;17.10;30.68;96865.47;5061382;28;20749;-70
2021/04/28 10:24:31;;;;;;;6.33;5.73;;;;;;;17.08;30.81;96863.03;5062447;28;20207;-70
2021/04/28 10:26:58;;;;;;;6.03;5.53;;;;;;;17.26;30.48;96859.41;5059285;28;20758;-70
2021/04/28 10:29:26;;;;;;;5.63;5.13;;;;;;;17.58;30.35;96860.84;5058762;28;20198;-71
2021/04/28 10:31:54;;;;;;;5.30;4.80;;;;;;;17.59;30.87;96855.25;5059934;28;20222;-70
2021/04/28 10:34:27;;;;;;;5.60;5.10;;;;;;;18.66;28.51;96859.31;5060785;28;20203;-70
2021/04/28 10:36:58;;;;;;;6.97;4.70;;;;;;;18.77;27.82;96858.44;5056728;28;20199;-70
2021/04/28 10:39:29;;;;;;;5.13;4.83;;;;;;;19.02;27.75;96851.84;5048745;28;20227;-70
2021/04/28 10:41:57;;;;;;;5.73;5.23;;;;;;;18.94;27.44;96839.63;5062212;28;20318;-71
2021/04/28 10:44:46;;;;;;;5.80;5.20;;;;;;;19.69;26.28;96846.50;5050974;28;20227;-71
2021/04/28 10:47:24;;;;;;;7.27;5.00;;;;;;;20.31;25.18;96849.06;5053462;28;20207;-71
2021/04/28 10:50:03;;;;;;;5.63;5.13;;;;;;;19.94;27.26;96837.13;5059412;28;20518;-71
2021/04/28 10:52:32;;;;;;;5.23;4.83;;;;;;;20.24;26.01;96836.63;5062383;28;20230;-70
2021/04/28 10:55:00;;;;;;;5.87;4.80;;;;;;;21.29;24.71;96833.63;5061153;28;20217;-71
2021/04/28 10:57:37;;;;;;;6.40;5.80;;;;;;;21.09;23.26;96831.63;5056748;28;20207;-71
2021/04/28 11:00:25;;;;;;;5.30;4.80;;;;;;;20.33;25.03;96825.41;5057676;28;20627;-71
2021/04/28 11:02:55;;;;;;;5.77;5.27;;;;;;;20.96;24.26;96825.66;5056601;28;20229;-71
2021/04/28 11:05:25;;;;;;;5.67;5.20;;;;;;;20.83;25.91;96836.84;5059994;28;20203;-70
2021/04/28 11:07:54;;;;;;;6.53;5.80;;;;;;;21.43;24.33;96827.78;5060043;28;20626;-71
2021/04/28 11:10:33;;;;;;;13.00;6.70;;;;;;;21.58;23.86;96827.00;5061247;28;20684;-72
2021/04/28 11:13:12;;;;;;;6.33;5.73;;;;;;;21.46;24.05;96817.25;5060943;28;20607;-71
2021/04/28 11:15:52;;;;;;;6.57;6.07;;;;;;;20.26;23.77;96825.63;5059896;28;20572;-72
2021/04/28 11:18:33;;;;;;;5.93;5.43;;;;;;;19.52;24.88;96819.72;5058766;28;20214;-71
2021/04/28 11:21:11;;;;;;;6.63;5.87;;;;;;;20.43;23.95;96825.50;5060384;28;20591;-71
2021/04/28 11:23:38;;;;;;;6.23;5.80;;;;;;;20.05;25.79;96817.34;5061510;28;20205;-72
2021/04/28 11:26:25;;;;;;;6.83;6.23;;;;;;;20.97;24.53;96810.28;5057029;28;20212;-71
2021/04/28 11:28:55;;;;;;;7.67;6.13;;;;;;;20.85;23.46;96810.50;5057771;28;20208;-71
2021/04/28 11:31:23;;;;;;;6.73;6.13;;;;;;;20.21;25.43;96815.63;5064543;28;20208;-71
2021/04/28 11:33:50;;;;;;;6.30;5.70;;;;;;;19.77;25.78;96815.69;5064922;28;20204;-70
2021/04/28 11:36:19;;;;;;;7.47;6.67;;;;;;;20.07;25.41;96817.09;5062410;28;20211;-71
2021/04/28 11:38:48;;;;;;;6.87;6.30;;;;;;;20.74;23.70;96817.66;5061269;28;20214;-71
2021/04/28 11:41:17;;;;;;;6.00;5.40;;;;;;;20.38;25.26;96817.38;5060154;28;20314;-71
2021/04/28 11:43:47;;;;;;;7.47;6.30;;;;;;;20.47;24.98;96813.16;5061085;28;20197;-71